Villa Rumipal, Argentina
Current Conditions -  °F | °C
As of 9:00 PM on Friday 19 Dec 2014 (Local Time) from SACO Reporting Station
Clear Clear  
Wind Chill: 26°   Ceiling: Unl
Heat Index: 27°   Visibility: 6mi
Dew Point: 17°   Wind: 7mph
Humidity: 57%   Direction: 20°NNE
Pressure: 29.59"   Gusts: NA
Location:  32.18°S, 64.48°W
Report Text: SACO 200000Z 02006KT CAVOK 26/17 Q1002
Loading
Personal Weather Stations






























Interactive Weather Map New forecast layout! Learn more

10-Day Weather Forecast

Advertisements
Track Severe Weather on mobile